createdAt,value
2022-08-14T00:02:06.457Z,54.54
2022-08-14T00:07:10.743Z,54.14
2022-08-14T00:12:23.782Z,53.85
2022-08-14T00:17:27.001Z,53.68
2022-08-14T00:22:44.634Z,53.38
2022-08-14T00:27:54.215Z,53.35
2022-08-14T00:32:56.872Z,53.65
2022-08-14T00:37:59.135Z,53.61
2022-08-14T00:43:02.122Z,53.49
2022-08-14T00:48:04.762Z,53.62
2022-08-14T00:53:10.532Z,53.84
2022-08-14T00:58:32.526Z,53.86
2022-08-14T01:03:39.700Z,53.76
2022-08-14T01:08:52.301Z,53.84
2022-08-14T01:14:18.228Z,53.80
2022-08-14T01:19:43.703Z,53.98
2022-08-14T01:24:45.986Z,53.79
2022-08-14T01:35:18.269Z,54.01
2022-08-14T01:40:36.587Z,54.30
2022-08-14T01:46:06.020Z,53.99
2022-08-14T01:51:18.689Z,54.06
2022-08-14T01:56:24.558Z,54.02
2022-08-14T02:01:35.258Z,54.44
2022-08-14T02:06:38.900Z,54.92
2022-08-14T02:11:41.192Z,56.05
2022-08-14T02:16:47.949Z,56.40
2022-08-14T02:21:54.749Z,56.04
2022-08-14T02:28:23.039Z,56.57
2022-08-14T02:32:30.329Z,56.63
2022-08-14T02:37:47.443Z,56.90
2022-08-14T02:42:54.688Z,56.83
2022-08-14T02:48:10.540Z,56.63
2022-08-14T02:53:31.251Z,55.93
2022-08-14T02:58:38.728Z,56.03
2022-08-14T03:03:46.344Z,55.71
2022-08-14T03:08:48.525Z,55.39
2022-08-14T03:13:52.192Z,55.71
2022-08-14T03:18:59.857Z,55.65
2022-08-14T03:24:07.844Z,55.45
2022-08-14T03:29:26.149Z,55.15
2022-08-14T03:34:48.487Z,55.30
2022-08-14T03:39:50.889Z,55.20
2022-08-14T03:45:19.881Z,54.96
2022-08-14T03:50:14.992Z,55.20
2022-08-14T03:55:30.687Z,55.35
2022-08-14T04:00:42.920Z,55.39
2022-08-14T04:05:48.490Z,55.57
2022-08-14T04:10:51.014Z,55.81
2022-08-14T04:16:02.089Z,56.18
2022-08-14T04:21:08.077Z,56.79
2022-08-14T04:26:14.401Z,57.00
2022-08-14T04:32:56.273Z,57.21
2022-08-14T04:37:01.038Z,56.99
2022-08-14T04:42:47.582Z,56.61
2022-08-14T04:48:12.672Z,56.97
2022-08-14T04:53:17.491Z,57.19
2022-08-14T04:58:32.659Z,57.49
2022-08-14T05:03:37.822Z,57.12
2022-08-14T05:08:56.951Z,57.64
2022-08-14T05:14:34.338Z,57.46
2022-08-14T05:19:29.352Z,57.43
2022-08-14T05:24:31.703Z,57.26
2022-08-14T05:29:34.894Z,57.11
2022-08-14T05:34:36.937Z,56.86
2022-08-14T05:39:40.774Z,56.60
2022-08-14T05:44:42.860Z,56.54
2022-08-14T05:49:48.661Z,56.62
2022-08-14T05:54:50.589Z,56.50
2022-08-14T05:59:52.484Z,56.25
2022-08-14T06:04:55.198Z,56.00
2022-08-14T06:10:04.003Z,55.91
2022-08-14T06:15:08.416Z,55.64
2022-08-14T06:20:12.490Z,55.32
2022-08-14T06:25:16.213Z,54.92
2022-08-14T06:30:24.140Z,55.02
2022-08-14T06:35:32.402Z,54.41
2022-08-14T06:40:37.119Z,54.08
2022-08-14T06:45:43.687Z,53.58
2022-08-14T06:50:53.954Z,53.42
2022-08-14T06:56:00.822Z,53.21
2022-08-14T07:01:27.829Z,53.54
2022-08-14T07:06:46.273Z,53.22
2022-08-14T07:11:48.794Z,52.68
2022-08-14T07:16:50.667Z,51.82
2022-08-14T07:21:52.624Z,51.15
2022-08-14T07:26:54.636Z,50.72
2022-08-14T07:31:56.657Z,50.25
2022-08-14T07:37:00.861Z,49.67
2022-08-14T07:42:03.185Z,49.31
2022-08-14T07:47:05.409Z,48.87
2022-08-14T07:52:08.232Z,48.13
2022-08-14T07:57:12.626Z,48.19
2022-08-14T08:02:18.741Z,47.65
2022-08-14T08:07:22.902Z,47.66
2022-08-14T08:12:30.234Z,47.32
2022-08-14T08:17:42.706Z,46.76
2022-08-14T08:23:00.489Z,46.26
2022-08-14T08:28:22.200Z,46.25
2022-08-14T08:33:31.832Z,45.97
2022-08-14T08:39:15.583Z,45.96
2022-08-14T08:44:05.380Z,45.32
2022-08-14T08:49:07.635Z,44.95
2022-08-14T08:54:19.611Z,44.78
2022-08-14T08:59:31.703Z,44.49
2022-08-14T09:04:45.640Z,44.51
2022-08-14T09:09:59.997Z,44.46
2022-08-14T09:15:12.077Z,43.62
2022-08-14T09:20:26.015Z,43.00
2022-08-14T09:25:58.971Z,42.96
2022-08-14T09:30:57.780Z,42.66
2022-08-14T09:36:21.803Z,42.05
2022-08-14T09:42:20.473Z,41.84
2022-08-14T09:47:19.424Z,41.76
2022-08-14T09:52:34.059Z,41.32
2022-08-14T09:57:36.435Z,41.32
2022-08-14T10:02:45.712Z,40.67
2022-08-14T10:07:53.404Z,39.90
2022-08-14T10:13:01.062Z,39.48
2022-08-14T10:18:13.350Z,38.98
2022-08-14T10:23:23.010Z,38.48
2022-08-14T10:29:03.891Z,38.24
2022-08-14T10:34:13.014Z,37.20
2022-08-14T10:39:19.331Z,37.02
2022-08-14T10:44:25.045Z,36.33
2022-08-14T10:49:31.902Z,36.58
2022-08-14T10:54:43.063Z,36.10
2022-08-14T10:59:57.923Z,35.48
2022-08-14T11:05:11.508Z,35.34
2022-08-14T11:10:15.084Z,35.34
2022-08-14T11:15:22.930Z,34.67
2022-08-14T11:20:27.430Z,34.40
2022-08-14T11:25:41.349Z,34.23
2022-08-14T11:30:53.397Z,34.17
2022-08-14T11:35:59.527Z,34.21
2022-08-14T11:41:02.250Z,34.01
2022-08-14T11:46:06.491Z,33.53
2022-08-14T11:51:23.899Z,33.15
2022-08-14T11:56:35.788Z,33.30
2022-08-14T12:01:41.319Z,33.22
2022-08-14T12:06:52.743Z,32.97
2022-08-14T12:11:55.688Z,33.16
2022-08-14T12:17:11.860Z,33.39
2022-08-14T12:22:25.861Z,33.35
2022-08-14T12:28:02.468Z,33.78
2022-08-14T12:33:08.566Z,33.72
2022-08-14T12:38:19.568Z,33.95
2022-08-14T12:43:23.260Z,34.25
2022-08-14T12:48:32.186Z,34.33
2022-08-14T12:53:38.902Z,34.93
2022-08-14T12:58:51.886Z,34.57
2022-08-14T13:04:16.207Z,34.06
2022-08-14T13:09:19.228Z,34.16
2022-08-14T13:14:29.613Z,34.27
2022-08-14T13:19:33.102Z,34.03
2022-08-14T13:24:37.706Z,33.72
2022-08-14T13:29:46.619Z,33.71
2022-08-14T13:34:49.351Z,33.42
2022-08-14T13:39:56.699Z,33.19
2022-08-14T13:45:02.478Z,32.74
2022-08-14T13:50:11.609Z,32.40
2022-08-14T13:55:16.290Z,32.00
2022-08-14T14:00:21.628Z,31.99
2022-08-14T14:05:52.915Z,32.04
2022-08-14T14:10:56.152Z,31.42
2022-08-14T14:16:03.814Z,31.35
2022-08-14T14:21:06.549Z,31.29
2022-08-14T14:26:19.973Z,30.98
2022-08-14T14:31:30.200Z,31.21
2022-08-14T14:36:32.920Z,31.28
2022-08-14T14:41:43.511Z,31.20
2022-08-14T14:46:50.300Z,31.57
2022-08-14T14:51:52.666Z,32.01
2022-08-14T14:56:56.640Z,32.40
2022-08-14T15:02:02.417Z,32.53
2022-08-14T15:07:07.144Z,32.60
2022-08-14T15:12:34.710Z,32.68
2022-08-14T15:17:41.495Z,33.05
2022-08-14T15:22:51.379Z,33.14
2022-08-14T15:27:54.535Z,33.33
2022-08-14T15:32:57.498Z,32.96
2022-08-14T15:38:08.344Z,33.30
2022-08-14T15:43:12.778Z,33.46
2022-08-14T15:48:22.187Z,33.23
2022-08-14T15:53:25.122Z,33.25
2022-08-14T15:58:33.461Z,32.73
2022-08-14T16:03:39.971Z,32.97
2022-08-14T16:08:46.799Z,32.39
2022-08-14T16:13:52.498Z,32.55
2022-08-14T16:18:59.704Z,32.65
2022-08-14T16:24:03.344Z,32.07
2022-08-14T16:29:07.682Z,32.21
2022-08-14T16:34:45.509Z,32.29
2022-08-14T16:39:37.708Z,32.26
2022-08-14T16:44:41.205Z,31.85
2022-08-14T16:50:05.077Z,31.82
2022-08-14T16:55:09.584Z,31.87
2022-08-14T17:00:29.939Z,31.83
2022-08-14T17:05:41.777Z,32.16
2022-08-14T17:10:48.198Z,32.01
2022-08-14T17:16:25.425Z,32.00
2022-08-14T17:21:38.432Z,32.37
2022-08-14T17:26:44.959Z,32.64
2022-08-14T17:31:58.059Z,33.34
2022-08-14T17:37:02.717Z,33.37
2022-08-14T17:42:13.498Z,34.07
2022-08-14T17:47:18.059Z,34.97
2022-08-14T17:52:35.861Z,36.20
2022-08-14T17:57:42.962Z,37.03
2022-08-14T18:02:51.334Z,37.88
2022-08-14T18:07:59.717Z,39.15
2022-08-14T18:13:16.685Z,39.48
2022-08-14T18:18:19.669Z,39.84
2022-08-14T18:23:22.005Z,40.32
2022-08-14T18:28:48.105Z,40.90
2022-08-14T18:34:30.960Z,41.49
2022-08-14T18:40:02.062Z,41.95
2022-08-14T18:45:01.032Z,42.29
2022-08-14T18:50:27.025Z,41.74
2022-08-14T18:55:36.689Z,41.96
2022-08-14T19:00:58.837Z,42.24
2022-08-14T19:06:07.386Z,42.32
2022-08-14T19:11:34.523Z,42.65
2022-08-14T19:16:43.028Z,43.16
2022-08-14T19:21:57.886Z,43.73
2022-08-14T19:27:16.471Z,43.70
2022-08-14T19:32:39.679Z,43.98
2022-08-14T19:37:52.395Z,44.12
2022-08-14T19:42:58.456Z,44.16
2022-08-14T19:48:02.683Z,43.97
2022-08-14T19:53:11.588Z,43.73
2022-08-14T19:58:13.899Z,43.67
2022-08-14T20:03:18.951Z,43.95
2022-08-14T20:09:05.999Z,44.02
2022-08-14T20:13:58.403Z,44.29
2022-08-14T20:19:30.102Z,44.73
2022-08-14T20:24:41.117Z,45.44
2022-08-14T20:29:44.359Z,45.42
2022-08-14T20:34:51.231Z,45.34
2022-08-14T20:39:53.970Z,45.36
2022-08-14T20:45:21.388Z,45.66
2022-08-14T20:50:28.749Z,45.97
2022-08-14T20:55:41.487Z,46.62
2022-08-14T21:00:52.162Z,46.99
2022-08-14T21:06:00.017Z,46.72
2022-08-14T21:11:05.723Z,46.56
2022-08-14T21:16:33.662Z,46.88
2022-08-14T21:21:40.465Z,46.88
2022-08-14T21:26:51.403Z,46.61
2022-08-14T21:32:02.443Z,46.91
2022-08-14T21:37:23.512Z,46.39
2022-08-14T21:42:28.045Z,46.88
2022-08-14T21:47:30.017Z,47.41
2022-08-14T21:52:51.453Z,47.02
2022-08-14T21:58:46.312Z,47.33
2022-08-14T22:03:24.285Z,47.83
2022-08-14T22:08:27.304Z,49.01
2022-08-14T22:13:32.454Z,49.49
2022-08-14T22:18:34.601Z,49.30
2022-08-14T22:23:38.997Z,48.64
2022-08-14T22:28:44.852Z,49.20
2022-08-14T22:33:49.881Z,48.69
2022-08-14T22:38:59.703Z,48.74
2022-08-14T22:44:10.933Z,48.28
2022-08-14T22:49:16.507Z,48.54
2022-08-14T22:54:51.928Z,48.59
2022-08-14T22:59:55.672Z,48.75
2022-08-14T23:04:58.782Z,49.15
2022-08-14T23:10:32.471Z,49.10
2022-08-14T23:15:29.783Z,49.38
2022-08-14T23:20:36.268Z,49.63
2022-08-14T23:25:59.071Z,49.59
2022-08-14T23:31:08.353Z,49.29
2022-08-14T23:36:32.480Z,49.31
2022-08-14T23:41:45.842Z,49.99
2022-08-14T23:46:52.552Z,49.80
2022-08-14T23:52:49.582Z,49.53
2022-08-14T23:57:20.784Z,49.59
